AVA8451 SKRG-SKBO
Flight info
| Callsign | AVA8451 |
|---|---|
| Flight time | 0h 25m |
| Altitude | 19000 |
| Route | ISVAT2B ISVAT ISVAT5E |
| Aircraft | A320/M-SDE3FGHIRWY/LB1 |
Departure
| Time | 2026-05-06 19:13 |
|---|---|
| Airport | Jose Maria Córdova International Airport (SKRG) |
Arrival
| Time | 2026-05-06 19:38 |
|---|---|
| Airport | El Dorado International Airport (SKBO) |
| Time | Latitude | Longitude | Altitude | Speed | Heading |
|---|---|---|---|---|---|
| 2026-05-06 18:48 | 6.16941 | -75.42909 | 7018 ft | 0 kts | 347° |
| 2026-05-06 19:03 | 6.16936 | -75.42908 | 7016 ft | 3 kts | 347° |
| 2026-05-06 19:03 | 6.16912 | -75.42903 | 7020 ft | 3 kts | 359° |
| 2026-05-06 19:03 | 6.16893 | -75.42907 | 7016 ft | 3 kts | 57° |
| 2026-05-06 19:03 | 6.16892 | -75.42904 | 7016 ft | 3 kts | 77° |
| 2026-05-06 19:04 | 6.16895 | -75.42891 | 7016 ft | 2 kts | 75° |
| 2026-05-06 19:04 | 6.16889 | -75.42914 | 7016 ft | 3 kts | 76° |
| 2026-05-06 19:04 | 6.16885 | -75.42932 | 7016 ft | 0 kts | 76° |
| 2026-05-06 19:06 | 6.16889 | -75.42915 | 7018 ft | 5 kts | 76° |
| 2026-05-06 19:07 | 6.16895 | -75.42893 | 7016 ft | 2 kts | 76° |
| 2026-05-06 19:07 | 6.16907 | -75.42846 | 7018 ft | 10 kts | 76° |
| 2026-05-06 19:07 | 6.16936 | -75.42762 | 7016 ft | 15 kts | 58° |
| 2026-05-06 19:07 | 6.17008 | -75.42675 | 7016 ft | 16 kts | 41° |
| 2026-05-06 19:08 | 6.17050 | -75.42598 | 7017 ft | 13 kts | 98° |
| 2026-05-06 19:08 | 6.16992 | -75.42559 | 7019 ft | 13 kts | 146° |
| 2026-05-06 19:08 | 6.16893 | -75.42500 | 7019 ft | 20 kts | 153° |
| 2026-05-06 19:08 | 6.16777 | -75.42485 | 7016 ft | 16 kts | 180° |
| 2026-05-06 19:09 | 6.16652 | -75.42485 | 7004 ft | 20 kts | 180° |
| 2026-05-06 19:09 | 6.16493 | -75.42484 | 6998 ft | 25 kts | 179° |
| 2026-05-06 19:09 | 6.16301 | -75.42482 | 6985 ft | 28 kts | 180° |
| 2026-05-06 19:09 | 6.16118 | -75.42481 | 6985 ft | 27 kts | 180° |
| 2026-05-06 19:10 | 6.15920 | -75.42480 | 6982 ft | 29 kts | 179° |
| 2026-05-06 19:10 | 6.15729 | -75.42479 | 6980 ft | 27 kts | 180° |
| 2026-05-06 19:10 | 6.15540 | -75.42479 | 6979 ft | 28 kts | 179° |
| 2026-05-06 19:10 | 6.15343 | -75.42478 | 6977 ft | 29 kts | 180° |
| 2026-05-06 19:11 | 6.15151 | -75.42474 | 6978 ft | 21 kts | 179° |
| 2026-05-06 19:11 | 6.14999 | -75.42474 | 6977 ft | 22 kts | 180° |
| 2026-05-06 19:11 | 6.14899 | -75.42438 | 6977 ft | 14 kts | 97° |
| 2026-05-06 19:11 | 6.14916 | -75.42340 | 6977 ft | 15 kts | 42° |
| 2026-05-06 19:12 | 6.15005 | -75.42304 | 6978 ft | 12 kts | 3° |
| 2026-05-06 19:12 | 6.15105 | -75.42304 | 6979 ft | 24 kts | 359° |
| 2026-05-06 19:12 | 6.15534 | -75.42307 | 6981 ft | 97 kts | 360° |
| 2026-05-06 19:12 | 6.16423 | -75.42313 | 6992 ft | 156 kts | 359° |
| 2026-05-06 19:13 | 6.17624 | -75.42312 | 7319 ft | 178 kts | 0° |
| 2026-05-06 19:13 | 6.18854 | -75.42304 | 8155 ft | 177 kts | 0° |
| 2026-05-06 19:13 | 6.20073 | -75.42296 | 8821 ft | 180 kts | 0° |
| 2026-05-06 19:13 | 6.21389 | -75.42173 | 8990 ft | 202 kts | 21° |
| 2026-05-06 19:14 | 6.22444 | -75.41223 | 9244 ft | 214 kts | 66° |
| 2026-05-06 19:14 | 6.22578 | -75.39736 | 9711 ft | 219 kts | 105° |
| 2026-05-06 19:14 | 6.21839 | -75.38389 | 10291 ft | 221 kts | 124° |
| 2026-05-06 19:14 | 6.20950 | -75.37129 | 10887 ft | 222 kts | 126° |
| 2026-05-06 19:15 | 6.20053 | -75.35879 | 11539 ft | 218 kts | 125° |
| 2026-05-06 19:15 | 6.19183 | -75.34633 | 12147 ft | 217 kts | 124° |
| 2026-05-06 19:15 | 6.18322 | -75.33386 | 12706 ft | 218 kts | 124° |
| 2026-05-06 19:15 | 6.17451 | -75.32131 | 13237 ft | 220 kts | 126° |
| 2026-05-06 19:16 | 6.16401 | -75.30962 | 13450 ft | 239 kts | 137° |
| 2026-05-06 19:16 | 6.14972 | -75.29924 | 13581 ft | 264 kts | 149° |
| 2026-05-06 19:16 | 6.13238 | -75.29159 | 13778 ft | 288 kts | 157° |
| 2026-05-06 19:16 | 6.11308 | -75.28427 | 14121 ft | 303 kts | 157° |
| 2026-05-06 19:17 | 6.09312 | -75.27670 | 14728 ft | 309 kts | 157° |
| 2026-05-06 19:17 | 6.07281 | -75.26899 | 15384 ft | 315 kts | 157° |
| 2026-05-06 19:17 | 6.05218 | -75.26112 | 16046 ft | 319 kts | 156° |
| 2026-05-06 19:17 | 6.03133 | -75.25318 | 16709 ft | 323 kts | 156° |
| 2026-05-06 19:18 | 6.01009 | -75.24512 | 17229 ft | 333 kts | 156° |
| 2026-05-06 19:18 | 5.98772 | -75.23656 | 17357 ft | 354 kts | 156° |
| 2026-05-06 19:18 | 5.96406 | -75.22749 | 17491 ft | 373 kts | 156° |
| 2026-05-06 19:18 | 5.93934 | -75.21802 | 17795 ft | 385 kts | 156° |
| 2026-05-06 19:19 | 5.91417 | -75.20842 | 18289 ft | 389 kts | 157° |
| 2026-05-06 19:19 | 5.88861 | -75.19871 | 18755 ft | 394 kts | 157° |
| 2026-05-06 19:19 | 5.86284 | -75.18892 | 18875 ft | 398 kts | 157° |
| 2026-05-06 19:19 | 5.83647 | -75.17888 | 18905 ft | 411 kts | 157° |
| 2026-05-06 19:20 | 5.80952 | -75.16862 | 19187 ft | 417 kts | 157° |
| 2026-05-06 19:20 | 5.78271 | -75.15841 | 19204 ft | 417 kts | 157° |
| 2026-05-06 19:20 | 5.75550 | -75.14804 | 19189 ft | 417 kts | 157° |
| 2026-05-06 19:20 | 5.72837 | -75.13773 | 19179 ft | 416 kts | 157° |
| 2026-05-06 19:21 | 5.70121 | -75.12744 | 19164 ft | 416 kts | 157° |
| 2026-05-06 19:21 | 5.67413 | -75.11701 | 19148 ft | 416 kts | 156° |
| 2026-05-06 19:21 | 5.64730 | -75.10618 | 19137 ft | 415 kts | 155° |
| 2026-05-06 19:21 | 5.62054 | -75.09505 | 19120 ft | 415 kts | 155° |
| 2026-05-06 19:22 | 5.59392 | -75.08383 | 19124 ft | 417 kts | 155° |
| 2026-05-06 19:22 | 5.56757 | -75.07277 | 19098 ft | 415 kts | 155° |
| 2026-05-06 19:22 | 5.54081 | -75.06162 | 19091 ft | 415 kts | 155° |
| 2026-05-06 19:22 | 5.51415 | -75.05057 | 19080 ft | 415 kts | 155° |
| 2026-05-06 19:23 | 5.48737 | -75.03951 | 19065 ft | 416 kts | 155° |
| 2026-05-06 19:23 | 5.46062 | -75.02849 | 19043 ft | 415 kts | 155° |
| 2026-05-06 19:23 | 5.43384 | -75.01749 | 19028 ft | 415 kts | 155° |
| 2026-05-06 19:23 | 5.40733 | -75.00661 | 19022 ft | 415 kts | 155° |
| 2026-05-06 19:24 | 5.38058 | -74.99563 | 19006 ft | 415 kts | 155° |
| 2026-05-06 19:24 | 5.35394 | -74.98455 | 18966 ft | 414 kts | 155° |
| 2026-05-06 19:24 | 5.32742 | -74.97332 | 18953 ft | 414 kts | 155° |
| 2026-05-06 19:24 | 5.30087 | -74.96199 | 18950 ft | 414 kts | 155° |
| 2026-05-06 19:25 | 5.27425 | -74.95062 | 18942 ft | 415 kts | 155° |
| 2026-05-06 19:25 | 5.24767 | -74.93928 | 18935 ft | 414 kts | 155° |
| 2026-05-06 19:25 | 5.23034 | -74.93152 | 18903 ft | 403 kts | 150° |
| 2026-05-06 19:25 | 5.20790 | -74.91593 | 18781 ft | 385 kts | 135° |
| 2026-05-06 19:26 | 5.19095 | -74.89616 | 18653 ft | 361 kts | 121° |
| 2026-05-06 19:26 | 5.17879 | -74.87532 | 18406 ft | 338 kts | 118° |
| 2026-05-06 19:26 | 5.16731 | -74.85513 | 17827 ft | 329 kts | 117° |
| 2026-05-06 19:26 | 5.15605 | -74.83530 | 17163 ft | 324 kts | 118° |
| 2026-05-06 19:27 | 5.14488 | -74.81593 | 16663 ft | 317 kts | 118° |
| 2026-05-06 19:27 | 5.13429 | -74.79659 | 16524 ft | 315 kts | 110° |
| 2026-05-06 19:27 | 5.12968 | -74.77555 | 16538 ft | 313 kts | 90° |
| 2026-05-06 19:27 | 5.13021 | -74.75361 | 16525 ft | 316 kts | 92° |
| 2026-05-06 19:28 | 5.12420 | -74.73274 | 16402 ft | 316 kts | 119° |
| 2026-05-06 19:28 | 5.11178 | -74.71452 | 16291 ft | 316 kts | 124° |
| 2026-05-06 19:28 | 5.09865 | -74.69679 | 16160 ft | 316 kts | 124° |
| 2026-05-06 19:28 | 5.08562 | -74.67907 | 16038 ft | 315 kts | 124° |
| 2026-05-06 19:29 | 5.07292 | -74.66113 | 15911 ft | 315 kts | 123° |
| 2026-05-06 19:29 | 5.06058 | -74.64301 | 15784 ft | 314 kts | 122° |
| 2026-05-06 19:29 | 5.04854 | -74.62481 | 15659 ft | 313 kts | 121° |
| 2026-05-06 19:29 | 5.03662 | -74.60651 | 15529 ft | 313 kts | 121° |
| 2026-05-06 19:30 | 5.02477 | -74.58813 | 15420 ft | 312 kts | 121° |
| 2026-05-06 19:30 | 5.01311 | -74.57001 | 15312 ft | 312 kts | 121° |
| 2026-05-06 19:30 | 5.00131 | -74.55178 | 15172 ft | 311 kts | 121° |
| 2026-05-06 19:30 | 4.98958 | -74.53368 | 14802 ft | 308 kts | 121° |
| 2026-05-06 19:31 | 4.97786 | -74.51565 | 14389 ft | 308 kts | 122° |
| 2026-05-06 19:31 | 4.96611 | -74.49764 | 13960 ft | 309 kts | 122° |
| 2026-05-06 19:31 | 4.94257 | -74.46155 | 13077 ft | 311 kts | 122° |
| 2026-05-06 19:32 | 4.93083 | -74.44351 | 12912 ft | 303 kts | 122° |
| 2026-05-06 19:32 | 4.91949 | -74.42612 | 12839 ft | 291 kts | 122° |
| 2026-05-06 19:32 | 4.90679 | -74.41074 | 12709 ft | 284 kts | 136° |
| 2026-05-06 19:32 | 4.89168 | -74.39784 | 12332 ft | 285 kts | 139° |
| 2026-05-06 19:33 | 4.87667 | -74.38529 | 11996 ft | 285 kts | 139° |
| 2026-05-06 19:33 | 4.86275 | -74.37155 | 11836 ft | 274 kts | 125° |
| 2026-05-06 19:33 | 4.85204 | -74.35680 | 11851 ft | 251 kts | 125° |
| 2026-05-06 19:33 | 4.84190 | -74.34306 | 11870 ft | 238 kts | 125° |
| 2026-05-06 19:34 | 4.83220 | -74.33000 | 11904 ft | 234 kts | 125° |
| 2026-05-06 19:34 | 4.82241 | -74.31695 | 11875 ft | 234 kts | 126° |
| 2026-05-06 19:34 | 4.81256 | -74.30398 | 11621 ft | 234 kts | 126° |
| 2026-05-06 19:34 | 4.80274 | -74.29102 | 11315 ft | 233 kts | 126° |
| 2026-05-06 19:35 | 4.79297 | -74.27815 | 11020 ft | 231 kts | 126° |
| 2026-05-06 19:35 | 4.78328 | -74.26532 | 10716 ft | 230 kts | 126° |
| 2026-05-06 19:35 | 4.77366 | -74.25262 | 10397 ft | 225 kts | 126° |
| 2026-05-06 19:35 | 4.76444 | -74.24043 | 10136 ft | 213 kts | 127° |
| 2026-05-06 19:36 | 4.75574 | -74.22893 | 9843 ft | 201 kts | 127° |
| 2026-05-06 19:36 | 4.74762 | -74.21822 | 9586 ft | 183 kts | 127° |
| 2026-05-06 19:36 | 4.74035 | -74.20862 | 9351 ft | 164 kts | 127° |
| 2026-05-06 19:36 | 4.73367 | -74.19980 | 9139 ft | 155 kts | 127° |
| 2026-05-06 19:37 | 4.72724 | -74.19129 | 8936 ft | 152 kts | 127° |
| 2026-05-06 19:37 | 4.72089 | -74.18292 | 8736 ft | 150 kts | 127° |
| 2026-05-06 19:37 | 4.71457 | -74.17459 | 8536 ft | 150 kts | 127° |
| 2026-05-06 19:37 | 4.70828 | -74.16626 | 8383 ft | 149 kts | 126° |
| 2026-05-06 19:38 | 4.70292 | -74.15907 | 8373 ft | 104 kts | 127° |
| 2026-05-06 19:38 | 4.69957 | -74.15465 | 8374 ft | 55 kts | 127° |
| 2026-05-06 19:38 | 4.69768 | -74.15213 | 8374 ft | 31 kts | 122° |
| 2026-05-06 19:38 | 4.69721 | -74.15012 | 8373 ft | 30 kts | 98° |
| 2026-05-06 19:39 | 4.69731 | -74.14841 | 8373 ft | 19 kts | 54° |
| 2026-05-06 19:39 | 4.69831 | -74.14759 | 8373 ft | 18 kts | 36° |
| 2026-05-06 19:39 | 4.69836 | -74.14692 | 8373 ft | 11 kts | 130° |
| 2026-05-06 19:39 | 4.69786 | -74.14627 | 8373 ft | 13 kts | 127° |
| 2026-05-06 19:40 | 4.69748 | -74.14564 | 8373 ft | 6 kts | 81° |
| 2026-05-06 19:40 | 4.69778 | -74.14539 | 8373 ft | 4 kts | 38° |
| 2026-05-06 19:40 | 4.69782 | -74.14536 | 8373 ft | 2 kts | 37° |
| 2026-05-06 19:40 | 4.69785 | -74.14534 | 8373 ft | 0 kts | 37° |